Steele, Missouri
Current Conditions -  °F | °C
As of 8:53 AM on Saturday 25 Oct 2014 (Local Time) from KHKA Reporting Station
Overcast Overcast  
Wind Chill: 63°   Ceiling: 4900
Heat Index: 63°   Visibility: 10mi
Dew Point: 58°   Wind: 8mph
Humidity: 84%   Direction: 220°SW
Pressure: 30.08"   Gusts: NA
Location:  36.08°N, 89.83°W
Report Text: KHKA 251353Z AUTO 22007KT 10SM OVC049 17/14 A3008 RMK AO2 SLP185 T01720144
Loading
Personal Weather Stations






























Interactive Weather Map New forecast layout! Learn more

10-Day Weather Forecast

Advertisements
Track Severe Weather on mobile